sensor_id;sensor_type;location;lat;lon;timestamp;P1;durP1;ratioP1;P2;durP2;ratioP2
62401;SDS011;48440;51.224;22.506;2023-11-21T00:01:39;10.98;;;6.82;;
62401;SDS011;48440;51.224;22.506;2023-11-21T00:04:05;11.93;;;7.45;;
62401;SDS011;48440;51.224;22.506;2023-11-21T00:06:32;10.68;;;6.55;;
62401;SDS011;48440;51.224;22.506;2023-11-21T00:08:58;14.75;;;8.38;;
62401;SDS011;48440;51.224;22.506;2023-11-21T00:11:23;12.27;;;7.90;;
62401;SDS011;48440;51.224;22.506;2023-11-21T00:13:50;14.15;;;7.47;;
62401;SDS011;48440;51.224;22.506;2023-11-21T00:16:16;11.93;;;7.75;;
62401;SDS011;48440;51.224;22.506;2023-11-21T00:18:41;13.20;;;8.55;;
62401;SDS011;48440;51.224;22.506;2023-11-21T00:21:07;13.25;;;7.53;;
62401;SDS011;48440;51.224;22.506;2023-11-21T00:23:34;12.38;;;7.78;;
62401;SDS011;48440;51.224;22.506;2023-11-21T00:26:00;12.75;;;7.07;;
62401;SDS011;48440;51.224;22.506;2023-11-21T00:28:26;11.68;;;7.80;;
62401;SDS011;48440;51.224;22.506;2023-11-21T00:30:51;13.20;;;7.82;;
62401;SDS011;48440;51.224;22.506;2023-11-21T00:33:17;11.98;;;7.18;;
62401;SDS011;48440;51.224;22.506;2023-11-21T00:35:42;12.35;;;7.47;;
62401;SDS011;48440;51.224;22.506;2023-11-21T00:38:08;11.05;;;7.95;;
62401;SDS011;48440;51.224;22.506;2023-11-21T00:40:33;12.15;;;7.63;;
62401;SDS011;48440;51.224;22.506;2023-11-21T00:42:59;12.63;;;7.63;;
62401;SDS011;48440;51.224;22.506;2023-11-21T00:45:24;12.23;;;7.85;;
62401;SDS011;48440;51.224;22.506;2023-11-21T00:47:50;11.40;;;7.88;;
62401;SDS011;48440;51.224;22.506;2023-11-21T00:50:16;15.15;;;8.15;;
62401;SDS011;48440;51.224;22.506;2023-11-21T00:52:41;11.13;;;7.38;;
62401;SDS011;48440;51.224;22.506;2023-11-21T00:55:07;14.57;;;8.85;;
62401;SDS011;48440;51.224;22.506;2023-11-21T00:57:33;11.98;;;7.60;;
62401;SDS011;48440;51.224;22.506;2023-11-21T00:59:59;10.63;;;6.85;;
62401;SDS011;48440;51.224;22.506;2023-11-21T01:02:25;12.93;;;8.50;;
62401;SDS011;48440;51.224;22.506;2023-11-21T01:04:50;13.38;;;8.45;;
62401;SDS011;48440;51.224;22.506;2023-11-21T01:07:16;12.48;;;8.27;;
62401;SDS011;48440;51.224;22.506;2023-11-21T01:09:42;14.07;;;8.80;;
62401;SDS011;48440;51.224;22.506;2023-11-21T01:12:09;14.32;;;8.88;;
62401;SDS011;48440;51.224;22.506;2023-11-21T01:14:34;13.25;;;8.38;;
62401;SDS011;48440;51.224;22.506;2023-11-21T01:17:01;14.80;;;8.07;;
62401;SDS011;48440;51.224;22.506;2023-11-21T01:19:27;14.88;;;8.98;;
62401;SDS011;48440;51.224;22.506;2023-11-21T01:21:53;16.83;;;9.40;;
62401;SDS011;48440;51.224;22.506;2023-11-21T01:24:19;14.73;;;9.20;;
62401;SDS011;48440;51.224;22.506;2023-11-21T01:26:44;12.43;;;7.85;;
62401;SDS011;48440;51.224;22.506;2023-11-21T01:29:11;14.60;;;8.35;;
62401;SDS011;48440;51.224;22.506;2023-11-21T01:31:37;12.65;;;7.80;;
62401;SDS011;48440;51.224;22.506;2023-11-21T01:34:02;14.55;;;8.75;;
62401;SDS011;48440;51.224;22.506;2023-11-21T01:36:31;15.60;;;9.13;;
62401;SDS011;48440;51.224;22.506;2023-11-21T01:38:57;15.30;;;8.85;;
62401;SDS011;48440;51.224;22.506;2023-11-21T01:41:24;15.70;;;8.80;;
62401;SDS011;48440;51.224;22.506;2023-11-21T01:43:53;13.95;;;8.23;;
62401;SDS011;48440;51.224;22.506;2023-11-21T01:46:20;13.30;;;8.85;;
62401;SDS011;48440;51.224;22.506;2023-11-21T01:48:46;13.48;;;8.68;;
62401;SDS011;48440;51.224;22.506;2023-11-21T01:51:13;17.98;;;9.18;;
62401;SDS011;48440;51.224;22.506;2023-11-21T01:53:38;14.73;;;8.85;;
62401;SDS011;48440;51.224;22.506;2023-11-21T01:56:05;17.15;;;9.00;;
62401;SDS011;48440;51.224;22.506;2023-11-21T01:58:33;12.20;;;8.45;;
62401;SDS011;48440;51.224;22.506;2023-11-21T02:00:58;17.30;;;10.05;;
62401;SDS011;48440;51.224;22.506;2023-11-21T02:03:24;16.83;;;8.95;;
62401;SDS011;48440;51.224;22.506;2023-11-21T02:05:51;16.20;;;9.88;;
62401;SDS011;48440;51.224;22.506;2023-11-21T02:08:18;15.70;;;9.15;;
62401;SDS011;48440;51.224;22.506;2023-11-21T02:10:44;16.00;;;9.50;;
62401;SDS011;48440;51.224;22.506;2023-11-21T02:13:10;17.88;;;8.85;;
62401;SDS011;48440;51.224;22.506;2023-11-21T02:15:36;16.35;;;8.88;;
62401;SDS011;48440;51.224;22.506;2023-11-21T02:18:03;14.93;;;9.20;;
62401;SDS011;48440;51.224;22.506;2023-11-21T02:20:31;13.93;;;8.40;;
62401;SDS011;48440;51.224;22.506;2023-11-21T02:22:59;17.85;;;9.98;;
62401;SDS011;48440;51.224;22.506;2023-11-21T02:25:26;16.08;;;8.90;;
62401;SDS011;48440;51.224;22.506;2023-11-21T02:27:55;17.60;;;9.63;;
62401;SDS011;48440;51.224;22.506;2023-11-21T02:30:21;15.02;;;9.35;;
62401;SDS011;48440;51.224;22.506;2023-11-21T02:32:48;15.15;;;8.43;;
62401;SDS011;48440;51.224;22.506;2023-11-21T02:35:14;15.30;;;8.63;;
62401;SDS011;48440;51.224;22.506;2023-11-21T02:37:40;14.75;;;8.65;;
62401;SDS011;48440;51.224;22.506;2023-11-21T02:40:08;16.08;;;8.90;;
62401;SDS011;48440;51.224;22.506;2023-11-21T02:42:35;15.38;;;8.18;;
62401;SDS011;48440;51.224;22.506;2023-11-21T02:45:00;13.27;;;8.10;;
62401;SDS011;48440;51.224;22.506;2023-11-21T02:47:26;12.80;;;8.02;;
62401;SDS011;48440;51.224;22.506;2023-11-21T02:49:51;13.45;;;8.15;;
62401;SDS011;48440;51.224;22.506;2023-11-21T02:52:17;14.48;;;8.35;;
62401;SDS011;48440;51.224;22.506;2023-11-21T02:54:44;14.48;;;8.15;;
62401;SDS011;48440;51.224;22.506;2023-11-21T02:57:10;14.23;;;8.07;;
62401;SDS011;48440;51.224;22.506;2023-11-21T02:59:35;13.63;;;7.65;;
62401;SDS011;48440;51.224;22.506;2023-11-21T03:02:00;15.60;;;8.68;;
62401;SDS011;48440;51.224;22.506;2023-11-21T03:04:26;13.45;;;8.23;;
62401;SDS011;48440;51.224;22.506;2023-11-21T03:06:51;15.35;;;8.55;;
62401;SDS011;48440;51.224;22.506;2023-11-21T03:09:17;11.80;;;8.00;;
62401;SDS011;48440;51.224;22.506;2023-11-21T03:11:42;14.43;;;8.40;;
62401;SDS011;48440;51.224;22.506;2023-11-21T03:14:07;14.75;;;8.93;;
62401;SDS011;48440;51.224;22.506;2023-11-21T03:16:33;14.02;;;7.30;;
62401;SDS011;48440;51.224;22.506;2023-11-21T03:18:59;13.98;;;7.63;;
62401;SDS011;48440;51.224;22.506;2023-11-21T03:21:24;12.75;;;7.25;;
62401;SDS011;48440;51.224;22.506;2023-11-21T03:23:51;12.82;;;7.38;;
62401;SDS011;48440;51.224;22.506;2023-11-21T03:26:17;12.95;;;7.00;;
62401;SDS011;48440;51.224;22.506;2023-11-21T03:28:43;13.40;;;7.80;;
62401;SDS011;48440;51.224;22.506;2023-11-21T03:31:08;14.40;;;7.70;;
62401;SDS011;48440;51.224;22.506;2023-11-21T03:33:34;12.90;;;7.88;;
62401;SDS011;48440;51.224;22.506;2023-11-21T03:36:00;12.45;;;7.35;;
62401;SDS011;48440;51.224;22.506;2023-11-21T03:38:26;14.45;;;7.20;;
62401;SDS011;48440;51.224;22.506;2023-11-21T03:40:51;11.10;;;7.20;;
62401;SDS011;48440;51.224;22.506;2023-11-21T03:43:17;13.77;;;7.45;;
62401;SDS011;48440;51.224;22.506;2023-11-21T03:45:42;12.80;;;7.22;;
62401;SDS011;48440;51.224;22.506;2023-11-21T03:48:08;11.90;;;7.50;;
62401;SDS011;48440;51.224;22.506;2023-11-21T03:50:34;12.70;;;6.70;;
62401;SDS011;48440;51.224;22.506;2023-11-21T03:53:00;11.80;;;6.90;;
62401;SDS011;48440;51.224;22.506;2023-11-21T03:55:25;12.20;;;7.28;;
62401;SDS011;48440;51.224;22.506;2023-11-21T03:57:51;12.20;;;7.32;;
62401;SDS011;48440;51.224;22.506;2023-11-21T04:00:17;11.70;;;6.70;;
62401;SDS011;48440;51.224;22.506;2023-11-21T04:02:43;15.25;;;6.80;;
62401;SDS011;48440;51.224;22.506;2023-11-21T04:05:08;11.57;;;6.60;;
62401;SDS011;48440;51.224;22.506;2023-11-21T04:07:34;12.05;;;6.07;;
62401;SDS011;48440;51.224;22.506;2023-11-21T04:10:00;9.32;;;6.03;;
62401;SDS011;48440;51.224;22.506;2023-11-21T04:12:25;12.82;;;6.80;;
62401;SDS011;48440;51.224;22.506;2023-11-21T04:14:51;11.43;;;6.07;;
62401;SDS011;48440;51.224;22.506;2023-11-21T04:17:19;11.48;;;6.10;;
62401;SDS011;48440;51.224;22.506;2023-11-21T04:19:45;10.90;;;6.53;;
62401;SDS011;48440;51.224;22.506;2023-11-21T04:22:11;10.63;;;6.10;;
62401;SDS011;48440;51.224;22.506;2023-11-21T04:24:36;10.45;;;6.47;;
62401;SDS011;48440;51.224;22.506;2023-11-21T04:27:02;10.50;;;6.25;;
62401;SDS011;48440;51.224;22.506;2023-11-21T04:29:28;12.00;;;6.40;;
62401;SDS011;48440;51.224;22.506;2023-11-21T04:31:53;10.80;;;6.35;;
62401;SDS011;48440;51.224;22.506;2023-11-21T04:34:19;10.85;;;6.57;;
62401;SDS011;48440;51.224;22.506;2023-11-21T04:36:44;11.77;;;6.25;;
62401;SDS011;48440;51.224;22.506;2023-11-21T04:39:10;10.50;;;6.72;;
62401;SDS011;48440;51.224;22.506;2023-11-21T04:41:36;12.63;;;7.13;;
62401;SDS011;48440;51.224;22.506;2023-11-21T04:44:04;14.57;;;7.75;;
62401;SDS011;48440;51.224;22.506;2023-11-21T04:46:30;12.00;;;7.00;;
62401;SDS011;48440;51.224;22.506;2023-11-21T04:48:56;12.95;;;7.07;;
62401;SDS011;48440;51.224;22.506;2023-11-21T04:51:23;13.30;;;7.97;;
62401;SDS011;48440;51.224;22.506;2023-11-21T04:53:48;12.57;;;7.60;;
62401;SDS011;48440;51.224;22.506;2023-11-21T04:56:13;13.43;;;7.80;;
62401;SDS011;48440;51.224;22.506;2023-11-21T04:58:39;11.73;;;7.22;;
62401;SDS011;48440;51.224;22.506;2023-11-21T05:01:05;13.88;;;7.80;;
62401;SDS011;48440;51.224;22.506;2023-11-21T05:03:33;13.35;;;7.50;;
62401;SDS011;48440;51.224;22.506;2023-11-21T05:05:59;14.05;;;8.05;;
62401;SDS011;48440;51.224;22.506;2023-11-21T05:08:25;15.68;;;8.65;;
62401;SDS011;48440;51.224;22.506;2023-11-21T05:10:51;13.10;;;8.32;;
62401;SDS011;48440;51.224;22.506;2023-11-21T05:13:17;13.52;;;8.35;;
62401;SDS011;48440;51.224;22.506;2023-11-21T05:15:43;13.90;;;8.80;;
62401;SDS011;48440;51.224;22.506;2023-11-21T05:18:09;13.82;;;8.10;;
62401;SDS011;48440;51.224;22.506;2023-11-21T05:20:35;14.13;;;8.48;;
62401;SDS011;48440;51.224;22.506;2023-11-21T05:23:01;14.90;;;8.27;;
62401;SDS011;48440;51.224;22.506;2023-11-21T05:25:26;13.80;;;7.47;;
62401;SDS011;48440;51.224;22.506;2023-11-21T05:27:52;11.15;;;6.88;;
62401;SDS011;48440;51.224;22.506;2023-11-21T05:30:21;12.27;;;7.65;;
62401;SDS011;48440;51.224;22.506;2023-11-21T05:32:47;11.27;;;7.03;;
62401;SDS011;48440;51.224;22.506;2023-11-21T05:35:12;10.05;;;6.38;;
62401;SDS011;48440;51.224;22.506;2023-11-21T05:37:41;10.38;;;5.93;;
62401;SDS011;48440;51.224;22.506;2023-11-21T05:40:07;9.00;;;5.43;;
62401;SDS011;48440;51.224;22.506;2023-11-21T05:42:34;10.30;;;6.03;;
62401;SDS011;48440;51.224;22.506;2023-11-21T05:45:00;12.48;;;5.93;;
62401;SDS011;48440;51.224;22.506;2023-11-21T05:47:36;9.45;;;5.70;;
62401;SDS011;48440;51.224;22.506;2023-11-21T05:50:04;11.00;;;6.20;;
62401;SDS011;48440;51.224;22.506;2023-11-21T05:52:30;9.85;;;5.85;;
62401;SDS011;48440;51.224;22.506;2023-11-21T05:54:57;11.10;;;6.68;;
62401;SDS011;48440;51.224;22.506;2023-11-21T05:57:23;12.40;;;7.00;;
62401;SDS011;48440;51.224;22.506;2023-11-21T05:59:48;15.57;;;7.32;;
62401;SDS011;48440;51.224;22.506;2023-11-21T06:02:14;9.45;;;6.40;;
62401;SDS011;48440;51.224;22.506;2023-11-21T06:04:39;10.02;;;6.68;;
62401;SDS011;48440;51.224;22.506;2023-11-21T06:07:05;10.68;;;6.93;;
62401;SDS011;48440;51.224;22.506;2023-11-21T06:09:30;11.45;;;6.88;;
62401;SDS011;48440;51.224;22.506;2023-11-21T06:11:55;9.50;;;6.10;;
62401;SDS011;48440;51.224;22.506;2023-11-21T06:14:21;10.52;;;6.80;;
62401;SDS011;48440;51.224;22.506;2023-11-21T06:16:47;11.90;;;7.40;;
62401;SDS011;48440;51.224;22.506;2023-11-21T06:19:12;9.77;;;7.07;;
62401;SDS011;48440;51.224;22.506;2023-11-21T06:21:37;11.27;;;7.20;;
62401;SDS011;48440;51.224;22.506;2023-11-21T06:24:03;9.73;;;6.95;;
62401;SDS011;48440;51.224;22.506;2023-11-21T06:26:29;11.20;;;6.90;;
62401;SDS011;48440;51.224;22.506;2023-11-21T06:28:56;9.65;;;6.22;;
62401;SDS011;48440;51.224;22.506;2023-11-21T06:31:22;10.70;;;6.65;;
62401;SDS011;48440;51.224;22.506;2023-11-21T06:33:47;9.00;;;5.95;;
62401;SDS011;48440;51.224;22.506;2023-11-21T06:36:13;11.73;;;6.47;;
62401;SDS011;48440;51.224;22.506;2023-11-21T06:38:38;9.30;;;6.30;;
62401;SDS011;48440;51.224;22.506;2023-11-21T06:41:04;11.02;;;6.65;;
62401;SDS011;48440;51.224;22.506;2023-11-21T06:43:30;11.30;;;6.28;;
62401;SDS011;48440;51.224;22.506;2023-11-21T06:45:58;9.02;;;6.05;;
62401;SDS011;48440;51.224;22.506;2023-11-21T06:48:23;10.43;;;6.28;;
62401;SDS011;48440;51.224;22.506;2023-11-21T06:50:49;9.98;;;6.28;;
62401;SDS011;48440;51.224;22.506;2023-11-21T06:53:14;10.05;;;6.68;;
62401;SDS011;48440;51.224;22.506;2023-11-21T06:55:40;10.25;;;6.68;;
62401;SDS011;48440;51.224;22.506;2023-11-21T06:58:05;9.77;;;6.15;;
62401;SDS011;48440;51.224;22.506;2023-11-21T07:00:31;12.77;;;7.28;;
62401;SDS011;48440;51.224;22.506;2023-11-21T07:02:56;11.63;;;7.40;;
62401;SDS011;48440;51.224;22.506;2023-11-21T07:05:22;12.45;;;7.10;;
62401;SDS011;48440;51.224;22.506;2023-11-21T07:07:48;9.65;;;6.05;;
62401;SDS011;48440;51.224;22.506;2023-11-21T07:10:14;10.65;;;7.10;;
62401;SDS011;48440;51.224;22.506;2023-11-21T07:12:40;11.10;;;7.28;;
62401;SDS011;48440;51.224;22.506;2023-11-21T07:15:06;13.27;;;7.53;;
62401;SDS011;48440;51.224;22.506;2023-11-21T07:17:34;10.40;;;6.78;;
62401;SDS011;48440;51.224;22.506;2023-11-21T07:20:00;10.30;;;7.47;;
62401;SDS011;48440;51.224;22.506;2023-11-21T07:22:27;11.70;;;7.00;;
62401;SDS011;48440;51.224;22.506;2023-11-21T07:24:52;12.35;;;7.65;;
62401;SDS011;48440;51.224;22.506;2023-11-21T07:27:17;10.80;;;7.25;;
62401;SDS011;48440;51.224;22.506;2023-11-21T07:29:43;10.77;;;6.93;;
62401;SDS011;48440;51.224;22.506;2023-11-21T07:32:09;11.55;;;8.05;;
62401;SDS011;48440;51.224;22.506;2023-11-21T07:34:34;12.68;;;7.70;;
62401;SDS011;48440;51.224;22.506;2023-11-21T07:37:01;10.20;;;7.10;;
62401;SDS011;48440;51.224;22.506;2023-11-21T07:39:27;9.60;;;6.97;;
62401;SDS011;48440;51.224;22.506;2023-11-21T07:41:52;8.70;;;6.50;;
62401;SDS011;48440;51.224;22.506;2023-11-21T07:44:17;9.70;;;6.90;;
62401;SDS011;48440;51.224;22.506;2023-11-21T07:46:43;9.73;;;6.25;;
62401;SDS011;48440;51.224;22.506;2023-11-21T07:49:09;9.38;;;6.47;;
62401;SDS011;48440;51.224;22.506;2023-11-21T07:51:34;10.52;;;6.82;;
62401;SDS011;48440;51.224;22.506;2023-11-21T07:54:00;8.55;;;6.38;;
62401;SDS011;48440;51.224;22.506;2023-11-21T07:56:25;12.05;;;7.47;;
62401;SDS011;48440;51.224;22.506;2023-11-21T07:58:51;9.10;;;7.05;;
62401;SDS011;48440;51.224;22.506;2023-11-21T08:01:17;9.15;;;7.13;;
62401;SDS011;48440;51.224;22.506;2023-11-21T08:03:42;10.23;;;6.95;;
62401;SDS011;48440;51.224;22.506;2023-11-21T08:06:09;9.52;;;6.28;;
62401;SDS011;48440;51.224;22.506;2023-11-21T08:08:34;8.90;;;6.18;;
62401;SDS011;48440;51.224;22.506;2023-11-21T08:11:00;7.47;;;6.18;;
62401;SDS011;48440;51.224;22.506;2023-11-21T08:13:27;9.07;;;5.97;;
62401;SDS011;48440;51.224;22.506;2023-11-21T08:15:59;11.00;;;6.55;;
62401;SDS011;48440;51.224;22.506;2023-11-21T08:18:28;7.75;;;5.70;;
62401;SDS011;48440;51.224;22.506;2023-11-21T08:20:54;8.00;;;5.43;;
62401;SDS011;48440;51.224;22.506;2023-11-21T08:23:20;6.80;;;5.82;;
62401;SDS011;48440;51.224;22.506;2023-11-21T08:25:45;8.38;;;5.60;;
62401;SDS011;48440;51.224;22.506;2023-11-21T08:28:11;9.20;;;6.35;;
62401;SDS011;48440;51.224;22.506;2023-11-21T08:30:39;8.02;;;6.10;;
62401;SDS011;48440;51.224;22.506;2023-11-21T08:33:06;9.60;;;6.53;;
62401;SDS011;48440;51.224;22.506;2023-11-21T08:35:33;10.52;;;6.35;;
62401;SDS011;48440;51.224;22.506;2023-11-21T08:37:59;11.70;;;7.28;;
62401;SDS011;48440;51.224;22.506;2023-11-21T08:40:24;11.38;;;8.00;;
62401;SDS011;48440;51.224;22.506;2023-11-21T08:42:50;11.63;;;7.85;;
62401;SDS011;48440;51.224;22.506;2023-11-21T08:45:18;10.73;;;7.47;;
62401;SDS011;48440;51.224;22.506;2023-11-21T08:47:44;10.50;;;7.70;;
62401;SDS011;48440;51.224;22.506;2023-11-21T08:50:10;12.05;;;7.47;;
62401;SDS011;48440;51.224;22.506;2023-11-21T08:52:37;10.23;;;7.55;;
62401;SDS011;48440;51.224;22.506;2023-11-21T08:55:04;12.23;;;8.02;;
62401;SDS011;48440;51.224;22.506;2023-11-21T08:57:35;11.02;;;7.50;;
62401;SDS011;48440;51.224;22.506;2023-11-21T09:00:05;11.18;;;7.90;;
62401;SDS011;48440;51.224;22.506;2023-11-21T09:02:35;13.38;;;7.70;;
62401;SDS011;48440;51.224;22.506;2023-11-21T09:05:02;11.05;;;7.47;;
62401;SDS011;48440;51.224;22.506;2023-11-21T09:07:28;8.73;;;7.10;;
62401;SDS011;48440;51.224;22.506;2023-11-21T09:09:54;8.73;;;6.68;;
62401;SDS011;48440;51.224;22.506;2023-11-21T09:12:20;9.52;;;6.82;;
62401;SDS011;48440;51.224;22.506;2023-11-21T09:14:46;10.45;;;7.47;;
62401;SDS011;48440;51.224;22.506;2023-11-21T09:17:11;9.32;;;6.90;;
62401;SDS011;48440;51.224;22.506;2023-11-21T09:19:37;10.65;;;7.45;;
62401;SDS011;48440;51.224;22.506;2023-11-21T09:22:03;10.35;;;7.32;;
62401;SDS011;48440;51.224;22.506;2023-11-21T09:24:30;13.80;;;8.30;;
62401;SDS011;48440;51.224;22.506;2023-11-21T09:26:56;10.90;;;7.53;;
62401;SDS011;48440;51.224;22.506;2023-11-21T09:29:21;12.48;;;7.75;;
62401;SDS011;48440;51.224;22.506;2023-11-21T09:31:52;11.82;;;8.18;;
62401;SDS011;48440;51.224;22.506;2023-11-21T09:34:17;11.55;;;7.88;;
62401;SDS011;48440;51.224;22.506;2023-11-21T09:36:46;10.25;;;7.55;;
62401;SDS011;48440;51.224;22.506;2023-11-21T09:39:12;11.25;;;7.60;;
62401;SDS011;48440;51.224;22.506;2023-11-21T09:41:52;10.02;;;7.60;;
62401;SDS011;48440;51.224;22.506;2023-11-21T09:47:00;9.18;;;6.97;;
62401;SDS011;48440;51.224;22.506;2023-11-21T09:49:27;11.60;;;7.65;;
62401;SDS011;48440;51.224;22.506;2023-11-21T09:51:54;10.85;;;8.38;;
62401;SDS011;48440;51.224;22.506;2023-11-21T09:54:26;10.90;;;8.15;;
62401;SDS011;48440;51.224;22.506;2023-11-21T09:56:56;11.77;;;8.45;;
62401;SDS011;48440;51.224;22.506;2023-11-21T09:59:25;10.80;;;8.10;;
62401;SDS011;48440;51.224;22.506;2023-11-21T10:01:55;11.35;;;7.85;;
62401;SDS011;48440;51.224;22.506;2023-11-21T10:04:23;9.88;;;7.22;;
62401;SDS011;48440;51.224;22.506;2023-11-21T10:06:49;11.40;;;7.85;;
62401;SDS011;48440;51.224;22.506;2023-11-21T10:09:18;9.82;;;7.70;;
62401;SDS011;48440;51.224;22.506;2023-11-21T10:11:50;11.38;;;7.68;;
62401;SDS011;48440;51.224;22.506;2023-11-21T10:14:28;10.95;;;7.70;;
62401;SDS011;48440;51.224;22.506;2023-11-21T10:16:56;11.05;;;7.68;;
62401;SDS011;48440;51.224;22.506;2023-11-21T10:19:23;10.95;;;7.88;;
62401;SDS011;48440;51.224;22.506;2023-11-21T10:21:49;11.13;;;8.63;;
62401;SDS011;48440;51.224;22.506;2023-11-21T10:24:16;12.50;;;8.13;;
62401;SDS011;48440;51.224;22.506;2023-11-21T10:26:43;13.00;;;8.90;;
62401;SDS011;48440;51.224;22.506;2023-11-21T10:29:10;11.95;;;8.80;;
62401;SDS011;48440;51.224;22.506;2023-11-21T10:31:43;11.77;;;8.52;;
62401;SDS011;48440;51.224;22.506;2023-11-21T10:34:16;10.68;;;8.40;;
62401;SDS011;48440;51.224;22.506;2023-11-21T10:39:09;11.43;;;8.20;;
62401;SDS011;48440;51.224;22.506;2023-11-21T10:41:43;14.45;;;9.82;;
62401;SDS011;48440;51.224;22.506;2023-11-21T10:44:10;13.77;;;9.57;;
62401;SDS011;48440;51.224;22.506;2023-11-21T10:46:36;13.73;;;9.48;;
62401;SDS011;48440;51.224;22.506;2023-11-21T10:49:01;12.52;;;8.98;;
62401;SDS011;48440;51.224;22.506;2023-11-21T10:51:30;12.65;;;8.95;;
62401;SDS011;48440;51.224;22.506;2023-11-21T10:53:55;13.90;;;8.27;;
62401;SDS011;48440;51.224;22.506;2023-11-21T10:56:23;14.02;;;9.20;;
62401;SDS011;48440;51.224;22.506;2023-11-21T10:58:49;11.95;;;8.98;;
62401;SDS011;48440;51.224;22.506;2023-11-21T11:01:19;13.20;;;9.07;;
62401;SDS011;48440;51.224;22.506;2023-11-21T11:03:48;12.80;;;8.85;;
62401;SDS011;48440;51.224;22.506;2023-11-21T11:06:15;12.25;;;8.48;;
62401;SDS011;48440;51.224;22.506;2023-11-21T11:08:41;11.55;;;8.68;;
62401;SDS011;48440;51.224;22.506;2023-11-21T11:11:07;10.35;;;7.93;;
62401;SDS011;48440;51.224;22.506;2023-11-21T11:13:35;11.52;;;8.40;;
62401;SDS011;48440;51.224;22.506;2023-11-21T11:16:02;12.35;;;8.43;;
62401;SDS011;48440;51.224;22.506;2023-11-21T11:18:33;11.35;;;8.60;;
62401;SDS011;48440;51.224;22.506;2023-11-21T11:21:01;10.55;;;7.55;;
62401;SDS011;48440;51.224;22.506;2023-11-21T11:26:50;10.57;;;7.32;;
62401;SDS011;48440;51.224;22.506;2023-11-21T11:35:17;9.55;;;6.88;;
62401;SDS011;48440;51.224;22.506;2023-11-21T11:37:52;9.00;;;6.95;;
62401;SDS011;48440;51.224;22.506;2023-11-21T11:40:21;11.90;;;8.70;;
62401;SDS011;48440;51.224;22.506;2023-11-21T11:43:00;11.43;;;8.23;;
62401;SDS011;48440;51.224;22.506;2023-11-21T11:46:02;11.57;;;8.23;;
62401;SDS011;48440;51.224;22.506;2023-11-21T11:48:33;9.85;;;8.00;;
62401;SDS011;48440;51.224;22.506;2023-11-21T11:51:13;12.73;;;8.55;;
62401;SDS011;48440;51.224;22.506;2023-11-21T11:53:48;11.38;;;8.30;;
62401;SDS011;48440;51.224;22.506;2023-11-21T11:56:34;10.77;;;7.38;;
62401;SDS011;48440;51.224;22.506;2023-11-21T11:59:02;10.73;;;7.57;;
62401;SDS011;48440;51.224;22.506;2023-11-21T12:01:40;10.68;;;7.40;;
62401;SDS011;48440;51.224;22.506;2023-11-21T12:04:24;10.98;;;7.97;;
62401;SDS011;48440;51.224;22.506;2023-11-21T12:10:09;10.77;;;7.82;;
62401;SDS011;48440;51.224;22.506;2023-11-21T12:13:07;12.25;;;7.80;;
62401;SDS011;48440;51.224;22.506;2023-11-21T12:20:58;12.68;;;8.75;;
62401;SDS011;48440;51.224;22.506;2023-11-21T12:23:34;13.20;;;7.93;;
62401;SDS011;48440;51.224;22.506;2023-11-21T12:26:24;12.23;;;8.38;;
62401;SDS011;48440;51.224;22.506;2023-11-21T12:29:11;10.52;;;7.53;;
62401;SDS011;48440;51.224;22.506;2023-11-21T12:31:37;11.63;;;7.18;;
62401;SDS011;48440;51.224;22.506;2023-11-21T12:34:23;13.45;;;8.48;;
62401;SDS011;48440;51.224;22.506;2023-11-21T12:37:13;14.82;;;8.30;;
62401;SDS011;48440;51.224;22.506;2023-11-21T12:39:38;12.07;;;8.15;;
62401;SDS011;48440;51.224;22.506;2023-11-21T12:42:04;11.25;;;8.20;;
62401;SDS011;48440;51.224;22.506;2023-11-21T12:44:29;10.85;;;7.90;;
62401;SDS011;48440;51.224;22.506;2023-11-21T12:46:55;12.07;;;8.70;;
62401;SDS011;48440;51.224;22.506;2023-11-21T12:49:20;11.13;;;8.38;;
62401;SDS011;48440;51.224;22.506;2023-11-21T12:51:47;11.80;;;8.30;;
62401;SDS011;48440;51.224;22.506;2023-11-21T12:54:12;11.95;;;7.80;;
62401;SDS011;48440;51.224;22.506;2023-11-21T12:56:38;12.55;;;8.80;;
62401;SDS011;48440;51.224;22.506;2023-11-21T12:59:04;12.07;;;8.07;;
62401;SDS011;48440;51.224;22.506;2023-11-21T13:01:30;11.20;;;8.40;;
62401;SDS011;48440;51.224;22.506;2023-11-21T13:03:57;12.70;;;8.05;;
62401;SDS011;48440;51.224;22.506;2023-11-21T13:06:27;12.93;;;9.05;;
62401;SDS011;48440;51.224;22.506;2023-11-21T13:08:54;13.10;;;9.30;;
62401;SDS011;48440;51.224;22.506;2023-11-21T13:11:22;13.93;;;9.15;;
62401;SDS011;48440;51.224;22.506;2023-11-21T13:13:47;13.57;;;9.60;;
62401;SDS011;48440;51.224;22.506;2023-11-21T13:16:18;14.98;;;9.43;;
62401;SDS011;48440;51.224;22.506;2023-11-21T13:18:45;14.43;;;9.27;;
62401;SDS011;48440;51.224;22.506;2023-11-21T13:21:11;13.80;;;9.63;;
62401;SDS011;48440;51.224;22.506;2023-11-21T13:23:40;12.90;;;8.95;;
62401;SDS011;48440;51.224;22.506;2023-11-21T13:26:07;14.05;;;9.32;;
62401;SDS011;48440;51.224;22.506;2023-11-21T13:28:34;12.70;;;9.23;;
62401;SDS011;48440;51.224;22.506;2023-11-21T13:31:01;12.88;;;9.15;;
62401;SDS011;48440;51.224;22.506;2023-11-21T13:33:34;14.07;;;8.88;;
62401;SDS011;48440;51.224;22.506;2023-11-21T13:36:03;12.75;;;9.02;;
62401;SDS011;48440;51.224;22.506;2023-11-21T13:38:32;13.50;;;8.77;;
62401;SDS011;48440;51.224;22.506;2023-11-21T13:41:00;12.50;;;8.52;;
62401;SDS011;48440;51.224;22.506;2023-11-21T13:43:26;11.27;;;7.72;;
62401;SDS011;48440;51.224;22.506;2023-11-21T13:45:53;13.55;;;8.52;;
62401;SDS011;48440;51.224;22.506;2023-11-21T13:48:29;10.88;;;7.78;;
62401;SDS011;48440;51.224;22.506;2023-11-21T13:51:05;12.50;;;8.35;;
62401;SDS011;48440;51.224;22.506;2023-11-21T13:53:45;12.73;;;8.60;;
62401;SDS011;48440;51.224;22.506;2023-11-21T13:56:18;14.07;;;8.65;;
62401;SDS011;48440;51.224;22.506;2023-11-21T13:58:51;11.02;;;7.85;;
62401;SDS011;48440;51.224;22.506;2023-11-21T14:01:19;12.10;;;7.90;;
62401;SDS011;48440;51.224;22.506;2023-11-21T14:03:57;10.30;;;7.85;;
62401;SDS011;48440;51.224;22.506;2023-11-21T14:06:42;10.80;;;7.40;;
62401;SDS011;48440;51.224;22.506;2023-11-21T14:09:14;11.07;;;7.22;;
62401;SDS011;48440;51.224;22.506;2023-11-21T14:12:01;9.30;;;7.05;;
62401;SDS011;48440;51.224;22.506;2023-11-21T14:14:31;9.77;;;6.93;;
62401;SDS011;48440;51.224;22.506;2023-11-21T14:16:57;9.48;;;7.22;;
62401;SDS011;48440;51.224;22.506;2023-11-21T14:19:23;10.18;;;6.63;;
62401;SDS011;48440;51.224;22.506;2023-11-21T14:21:53;7.50;;;5.93;;
62401;SDS011;48440;51.224;22.506;2023-11-21T14:24:18;7.35;;;5.55;;
62401;SDS011;48440;51.224;22.506;2023-11-21T14:26:45;8.95;;;6.30;;
62401;SDS011;48440;51.224;22.506;2023-11-21T14:29:12;7.25;;;5.70;;
62401;SDS011;48440;51.224;22.506;2023-11-21T14:31:39;6.70;;;5.30;;
62401;SDS011;48440;51.224;22.506;2023-11-21T14:34:06;6.82;;;5.32;;
62401;SDS011;48440;51.224;22.506;2023-11-21T14:36:37;8.45;;;6.25;;
62401;SDS011;48440;51.224;22.506;2023-11-21T14:39:03;8.43;;;5.85;;
62401;SDS011;48440;51.224;22.506;2023-11-21T14:41:46;7.50;;;5.30;;
62401;SDS011;48440;51.224;22.506;2023-11-21T14:44:11;7.57;;;5.53;;
62401;SDS011;48440;51.224;22.506;2023-11-21T14:46:39;7.63;;;5.57;;
62401;SDS011;48440;51.224;22.506;2023-11-21T14:49:06;7.00;;;4.80;;